createdAt,value
2019-04-05T00:01:46.046Z,21.93
2019-04-05T00:04:15.117Z,21.20
2019-04-05T00:06:44.273Z,20.93
2019-04-05T00:09:13.361Z,22.33
2019-04-05T00:11:42.499Z,21.17
2019-04-05T00:14:11.583Z,20.43
2019-04-05T00:16:40.762Z,20.13
2019-04-05T00:19:09.889Z,21.20
2019-04-05T00:21:39.061Z,20.77
2019-04-05T00:24:08.150Z,20.63
2019-04-05T00:26:37.307Z,19.80
2019-04-05T00:29:06.434Z,20.67
2019-04-05T00:31:35.645Z,20.60
2019-04-05T00:34:04.775Z,20.67
2019-04-05T00:36:33.893Z,20.23
2019-04-05T00:39:03.011Z,21.67
2019-04-05T00:41:33.120Z,20.27
2019-04-05T00:44:02.402Z,21.07
2019-04-05T00:46:31.541Z,20.20
2019-04-05T00:49:00.690Z,20.77
2019-04-05T00:51:29.799Z,20.40
2019-04-05T00:53:58.941Z,20.67
2019-04-05T00:56:28.163Z,19.70
2019-04-05T00:58:57.383Z,18.70
2019-04-05T01:01:26.508Z,20.17
2019-04-05T01:03:55.631Z,19.87
2019-04-05T01:06:24.779Z,20.77
2019-04-05T01:08:53.928Z,19.63
2019-04-05T01:11:23.073Z,21.27
2019-04-05T01:13:52.609Z,20.70
2019-04-05T01:16:21.747Z,20.33
2019-04-05T01:18:50.889Z,19.73
2019-04-05T01:21:21.206Z,21.20
2019-04-05T01:23:50.376Z,20.67
2019-04-05T01:26:19.746Z,21.63
2019-04-05T01:28:48.866Z,19.57
2019-04-05T01:31:17.995Z,21.07
2019-04-05T01:33:47.428Z,20.97
2019-04-05T01:36:16.553Z,20.57
2019-04-05T01:38:45.705Z,19.10
2019-04-05T01:41:14.822Z,21.50
2019-04-05T01:43:43.930Z,21.10
2019-04-05T01:46:13.172Z,21.83
2019-04-05T01:48:42.299Z,18.63
2019-04-05T01:51:11.431Z,19.43
2019-04-05T01:53:40.585Z,19.20
2019-04-05T01:56:09.706Z,20.53
2019-04-05T01:58:38.809Z,21.13
2019-04-05T02:01:07.980Z,19.97
2019-04-05T02:03:37.109Z,20.07
2019-04-05T02:06:06.240Z,19.50
2019-04-05T02:08:35.545Z,19.90
2019-04-05T02:11:04.677Z,19.67
2019-04-05T02:13:33.825Z,19.33
2019-04-05T02:16:06.447Z,19.50
2019-04-05T02:18:33.831Z,20.10
2019-04-05T02:21:02.946Z,18.87
2019-04-05T02:23:32.114Z,18.80
2019-04-05T02:26:01.184Z,19.57
2019-04-05T02:28:30.307Z,20.60
2019-04-05T02:30:59.469Z,19.43
2019-04-05T02:33:28.597Z,19.53
2019-04-05T02:35:57.793Z,19.13
2019-04-05T02:38:27.000Z,18.93
2019-04-05T02:40:58.614Z,19.20
2019-04-05T02:43:27.066Z,19.77
2019-04-05T02:45:56.181Z,18.53
2019-04-05T02:48:25.444Z,19.53
2019-04-05T02:50:56.468Z,18.87
2019-04-05T02:53:25.561Z,21.63
2019-04-05T02:55:54.698Z,19.50
2019-04-05T02:58:23.842Z,19.10
2019-04-05T03:00:52.966Z,19.67
2019-04-05T03:03:22.124Z,19.33
2019-04-05T03:05:51.195Z,19.07
2019-04-05T03:08:20.296Z,19.33
2019-04-05T03:11:00.066Z,20.33
2019-04-05T03:13:29.207Z,17.60
2019-04-05T03:16:01.918Z,17.13
2019-04-05T03:18:31.080Z,18.50
2019-04-05T03:21:02.738Z,18.73
2019-04-05T03:23:31.859Z,18.73
2019-04-05T03:26:01.698Z,19.27
2019-04-05T03:28:30.861Z,18.67
2019-04-05T03:31:00.010Z,19.77
2019-04-05T03:33:29.143Z,19.63
2019-04-05T03:35:58.292Z,18.30
2019-04-05T03:38:27.442Z,18.47
2019-04-05T03:40:56.626Z,19.37
2019-04-05T03:43:25.813Z,18.20
2019-04-05T03:45:54.947Z,18.87
2019-04-05T03:48:24.129Z,18.53
2019-04-05T03:50:53.303Z,19.60
2019-04-05T03:53:22.445Z,19.73
2019-04-05T03:55:51.560Z,19.50
2019-04-05T03:58:20.695Z,19.83
2019-04-05T04:00:49.813Z,19.90
2019-04-05T04:03:19.079Z,20.17
2019-04-05T04:05:48.180Z,18.90
2019-04-05T04:08:17.358Z,19.60
2019-04-05T04:10:47.068Z,19.67
2019-04-05T04:13:16.281Z,20.10
2019-04-05T04:15:45.481Z,20.60
2019-04-05T04:18:14.589Z,19.10
2019-04-05T04:20:47.174Z,19.77
2019-04-05T04:23:16.292Z,19.87
2019-04-05T04:25:45.569Z,21.13
2019-04-05T04:28:14.634Z,19.17
2019-04-05T04:30:43.750Z,20.23
2019-04-05T04:33:12.902Z,19.23
2019-04-05T04:35:42.428Z,20.57
2019-04-05T04:38:11.592Z,20.30
2019-04-05T04:40:40.746Z,20.03
2019-04-05T04:43:09.952Z,21.73
2019-04-05T04:45:39.195Z,19.50
2019-04-05T04:48:08.496Z,20.27
2019-04-05T04:50:37.805Z,21.30
2019-04-05T04:53:07.038Z,20.73
2019-04-05T04:55:36.565Z,22.27
2019-04-05T04:58:05.868Z,22.70
2019-04-05T05:00:35.108Z,23.67
2019-04-05T05:03:07.311Z,23.23
2019-04-05T05:05:36.516Z,24.93
2019-04-05T05:08:05.691Z,23.30
2019-04-05T05:10:34.890Z,22.27
2019-04-05T05:13:04.037Z,23.80
2019-04-05T05:15:33.373Z,24.43
2019-04-05T05:18:02.550Z,23.83
2019-04-05T05:20:31.765Z,23.20
2019-04-05T05:23:00.990Z,25.87
2019-04-05T05:25:30.304Z,23.03
2019-04-05T05:27:59.483Z,25.10
2019-04-05T05:30:28.901Z,23.93
2019-04-05T05:32:58.141Z,24.70
2019-04-05T05:35:27.828Z,24.00
2019-04-05T05:37:57.003Z,26.43
2019-04-05T05:40:34.752Z,25.37
2019-04-05T05:42:57.305Z,23.83
2019-04-05T05:45:26.521Z,23.97
2019-04-05T05:47:55.752Z,24.17
2019-04-05T05:50:24.967Z,24.83
2019-04-05T05:52:54.253Z,23.93
2019-04-05T05:55:23.441Z,24.03
2019-04-05T05:57:54.883Z,25.50
2019-04-05T06:00:24.645Z,24.57
2019-04-05T06:02:53.861Z,24.90
2019-04-05T06:05:23.166Z,24.33
2019-04-05T06:07:52.488Z,25.80
2019-04-05T06:10:21.756Z,26.50
2019-04-05T06:12:50.941Z,24.03
2019-04-05T06:15:20.234Z,25.73
2019-04-05T06:18:04.569Z,24.13
2019-04-05T06:20:28.383Z,23.37
2019-04-05T06:22:57.703Z,22.87
2019-04-05T06:25:27.075Z,23.33
2019-04-05T06:27:59.654Z,24.10
2019-04-05T06:30:28.925Z,24.17
2019-04-05T06:32:58.410Z,22.17
2019-04-05T06:35:27.631Z,21.87
2019-04-05T06:37:56.953Z,21.77
2019-04-05T06:40:39.576Z,21.30
2019-04-05T06:42:57.586Z,22.77
2019-04-05T06:45:27.094Z,22.60
2019-04-05T06:47:56.434Z,20.07
2019-04-05T06:50:26.585Z,19.60
2019-04-05T06:52:56.116Z,19.43
2019-04-05T06:55:25.377Z,21.17
2019-04-05T06:57:55.070Z,20.73
2019-04-05T07:00:30.461Z,21.17
2019-04-05T07:03:00.123Z,19.20
2019-04-05T07:05:29.301Z,17.37
2019-04-05T07:07:58.527Z,17.33
2019-04-05T07:10:35.430Z,19.70
2019-04-05T07:13:05.075Z,18.50
2019-04-05T07:15:34.583Z,17.57
2019-04-05T07:18:03.964Z,17.83
2019-04-05T07:20:33.159Z,17.50
2019-04-05T07:23:02.364Z,17.13
2019-04-05T07:26:02.040Z,15.87
2019-04-05T07:28:31.399Z,15.23
2019-04-05T07:31:00.619Z,16.97
2019-04-05T07:33:29.953Z,15.60
2019-04-05T07:36:38.883Z,15.97
2019-04-05T07:39:19.392Z,15.40
2019-04-05T07:41:47.987Z,13.43
2019-04-05T07:44:17.147Z,14.43
2019-04-05T07:46:46.801Z,12.80
2019-04-05T07:49:16.125Z,12.70
2019-04-05T07:51:45.339Z,12.30
2019-04-05T07:54:14.590Z,13.40
2019-04-05T07:56:46.120Z,14.07
2019-04-05T07:59:23.866Z,14.53
2019-04-05T08:01:53.170Z,14.50
2019-04-05T08:04:22.365Z,15.20
2019-04-05T08:06:51.604Z,15.30
2019-04-05T08:09:20.766Z,15.70
2019-04-05T08:11:50.044Z,17.53
2019-04-05T08:14:19.355Z,16.80
2019-04-05T08:16:50.775Z,18.50
2019-04-05T08:19:19.935Z,19.40
2019-04-05T08:21:49.296Z,20.53
2019-04-05T08:24:18.916Z,22.23
2019-04-05T08:26:48.188Z,21.40
2019-04-05T08:29:17.394Z,21.07
2019-04-05T08:31:46.675Z,19.30
2019-04-05T08:34:16.007Z,19.63
2019-04-05T08:36:45.266Z,20.13
2019-04-05T08:39:14.469Z,18.63
2019-04-05T08:41:43.661Z,17.40
2019-04-05T08:44:13.199Z,18.40
2019-04-05T08:46:42.792Z,19.17
2019-04-05T08:49:12.122Z,16.47
2019-04-05T08:51:41.363Z,17.30
2019-04-05T08:54:10.984Z,14.90
2019-04-05T08:56:40.272Z,15.07
2019-04-05T08:59:09.525Z,15.47
2019-04-05T09:01:38.851Z,15.03
2019-04-05T09:04:08.048Z,14.50
2019-04-05T09:06:37.310Z,13.23
2019-04-05T09:09:08.035Z,12.50
2019-04-05T09:11:37.317Z,13.17
2019-04-05T09:14:06.596Z,9.83
2019-04-05T09:16:35.849Z,12.13
2019-04-05T09:19:05.018Z,12.53
2019-04-05T09:21:34.134Z,12.20
2019-04-05T09:24:03.386Z,11.77
2019-04-05T09:26:32.680Z,12.23
2019-04-05T09:29:02.413Z,12.10
2019-04-05T09:31:31.639Z,13.17
2019-04-05T09:34:00.982Z,13.37
2019-04-05T09:36:30.180Z,12.77
2019-04-05T09:38:59.431Z,11.53
2019-04-05T09:41:28.683Z,11.20
2019-04-05T09:43:57.935Z,10.83
2019-04-05T09:46:27.391Z,9.60
2019-04-05T09:48:56.757Z,11.50
2019-04-05T09:51:26.084Z,11.37
2019-04-05T09:53:55.462Z,10.33
2019-04-05T09:56:24.807Z,10.10
2019-04-05T09:58:54.106Z,8.90
2019-04-05T10:01:23.383Z,8.30
2019-04-05T10:03:52.806Z,7.97
2019-04-05T10:06:22.139Z,8.67
2019-04-05T10:08:51.386Z,7.73
2019-04-05T10:11:20.559Z,10.07
2019-04-05T10:13:49.823Z,7.93
2019-04-05T10:16:19.139Z,7.80
2019-04-05T10:18:51.327Z,7.90
2019-04-05T10:21:19.387Z,7.67
2019-04-05T10:23:48.630Z,7.63
2019-04-05T10:26:18.026Z,6.87
2019-04-05T10:28:47.228Z,6.60
2019-04-05T10:31:16.428Z,6.80
2019-04-05T10:33:45.710Z,6.90
2019-04-05T10:36:14.965Z,7.50
2019-04-05T10:38:44.271Z,6.70
2019-04-05T10:41:13.542Z,7.27
2019-04-05T10:43:42.858Z,7.33
2019-04-05T10:46:12.363Z,7.07
2019-04-05T10:48:41.601Z,7.03
2019-04-05T10:51:11.067Z,6.60
2019-04-05T10:53:40.842Z,7.20
2019-04-05T10:56:10.134Z,8.47
2019-04-05T10:58:39.402Z,8.73
2019-04-05T11:01:08.678Z,8.63
2019-04-05T11:03:37.908Z,9.37
2019-04-05T11:06:07.247Z,9.80
2019-04-05T11:08:36.528Z,9.57
2019-04-05T11:11:05.737Z,10.20
2019-04-05T11:13:34.947Z,9.80
2019-04-05T11:16:04.778Z,10.40
2019-04-05T11:18:34.011Z,9.93
2019-04-05T11:21:03.316Z,10.77
2019-04-05T11:23:32.430Z,10.00
2019-04-05T11:26:01.607Z,10.23
2019-04-05T11:28:30.778Z,10.07
2019-04-05T11:31:00.065Z,9.80
2019-04-05T11:33:29.169Z,9.73
2019-04-05T11:35:58.753Z,11.50
2019-04-05T11:38:27.958Z,10.77
2019-04-05T11:40:57.260Z,11.07
2019-04-05T11:43:28.087Z,10.93
2019-04-05T11:45:57.601Z,10.60
2019-04-05T11:48:30.067Z,11.17
2019-04-05T11:50:58.478Z,11.27
2019-04-05T11:53:27.593Z,11.60
2019-04-05T11:55:56.720Z,10.10
2019-04-05T11:58:25.845Z,11.67
2019-04-05T12:00:58.257Z,12.13
2019-04-05T12:03:28.506Z,11.10
2019-04-05T12:05:57.748Z,11.60
2019-04-05T12:08:26.969Z,11.03
2019-04-05T12:10:56.166Z,10.30
2019-04-05T12:13:25.364Z,12.13
2019-04-05T12:15:54.518Z,11.23
2019-04-05T12:18:23.630Z,12.03
2019-04-05T12:20:59.955Z,12.40
2019-04-05T12:23:23.710Z,12.07
2019-04-05T12:25:54.571Z,12.20
2019-04-05T12:28:23.744Z,12.10
2019-04-05T12:30:52.911Z,13.43
2019-04-05T12:33:22.121Z,13.70
2019-04-05T12:35:52.550Z,13.17
2019-04-05T12:38:32.455Z,12.43
2019-04-05T12:41:03.049Z,13.20
2019-04-05T12:43:32.544Z,13.63
2019-04-05T12:46:01.705Z,12.73
2019-04-05T12:48:30.858Z,13.77
2019-04-05T12:51:01.341Z,13.50
2019-04-05T12:53:31.074Z,12.27
2019-04-05T12:56:00.297Z,12.53
2019-04-05T12:58:32.465Z,12.47
2019-04-05T13:01:00.207Z,11.00
2019-04-05T13:03:29.345Z,12.70
2019-04-05T13:05:58.527Z,13.17
2019-04-05T13:08:27.670Z,14.37
2019-04-05T13:10:57.010Z,13.00
2019-04-05T13:13:27.508Z,13.63
2019-04-05T13:15:59.362Z,12.80
2019-04-05T13:18:30.619Z,13.50
2019-04-05T13:21:00.332Z,13.23
2019-04-05T13:23:29.551Z,13.63
2019-04-05T13:25:58.758Z,14.07
2019-04-05T13:28:28.003Z,12.23
2019-04-05T13:30:57.266Z,11.93
2019-04-05T13:33:28.872Z,12.33
2019-04-05T13:35:57.290Z,13.23
2019-04-05T13:38:26.474Z,12.93
2019-04-05T13:40:56.949Z,14.00
2019-04-05T13:43:26.253Z,13.03
2019-04-05T13:45:55.356Z,13.60
2019-04-05T13:48:24.552Z,14.03
2019-04-05T13:50:53.719Z,13.40
2019-04-05T13:53:22.847Z,13.87
2019-04-05T13:55:52.048Z,14.03
2019-04-05T13:58:21.139Z,14.50
2019-04-05T14:00:50.262Z,13.70
2019-04-05T14:03:20.903Z,13.87
2019-04-05T14:05:54.055Z,14.17
2019-04-05T14:08:21.084Z,13.43
2019-04-05T14:10:50.245Z,13.87
2019-04-05T14:13:19.428Z,12.87
2019-04-05T14:15:48.746Z,12.73
2019-04-05T14:18:20.583Z,14.67
2019-04-05T14:20:49.963Z,13.67
2019-04-05T14:23:23.264Z,12.53
2019-04-05T14:25:50.541Z,13.00
2019-04-05T14:28:19.674Z,13.20
2019-04-05T14:30:48.852Z,13.63
2019-04-05T14:33:18.045Z,12.57
2019-04-05T14:35:47.202Z,13.27
2019-04-05T14:38:16.490Z,14.10
2019-04-05T14:40:45.651Z,13.10
2019-04-05T14:43:15.624Z,13.97
2019-04-05T14:45:44.843Z,13.27
2019-04-05T14:48:14.004Z,13.50
2019-04-05T14:50:43.115Z,13.90
2019-04-05T14:53:12.369Z,14.20
2019-04-05T14:55:41.449Z,13.93
2019-04-05T14:58:10.890Z,13.57
2019-04-05T15:00:40.235Z,13.67
2019-04-05T15:03:09.437Z,12.87
2019-04-05T15:05:38.656Z,13.33
2019-04-05T15:08:07.949Z,11.73
2019-04-05T15:10:37.185Z,14.57
2019-04-05T15:13:06.299Z,13.43
2019-04-05T15:15:35.469Z,13.80
2019-04-05T15:18:04.634Z,14.30
2019-04-05T15:20:34.775Z,13.20
2019-04-05T15:23:04.615Z,13.87
2019-04-05T15:25:34.115Z,14.43
2019-04-05T15:28:03.269Z,14.07
2019-04-05T15:30:32.447Z,13.43
2019-04-05T15:33:04.653Z,13.20
2019-04-05T15:35:33.753Z,13.57
2019-04-05T15:38:03.072Z,13.40
2019-04-05T15:40:32.199Z,13.77
2019-04-05T15:43:01.429Z,14.57
2019-04-05T15:45:30.570Z,15.57
2019-04-05T15:47:59.714Z,15.50
2019-04-05T15:50:28.828Z,13.77
2019-04-05T15:53:02.285Z,15.23
2019-04-05T15:55:33.367Z,14.77
2019-04-05T15:58:03.797Z,12.37
2019-04-05T16:00:41.426Z,14.17
2019-04-05T16:03:10.571Z,15.27
2019-04-05T16:05:39.726Z,15.73
2019-04-05T16:08:09.046Z,15.80
2019-04-05T16:10:38.214Z,16.50
2019-04-05T16:13:08.149Z,14.87
2019-04-05T16:15:37.757Z,17.50
2019-04-05T16:18:06.956Z,15.27
2019-04-05T16:20:36.138Z,16.70
2019-04-05T16:23:05.367Z,16.70
2019-04-05T16:25:35.104Z,16.27
2019-04-05T16:28:04.286Z,17.67
2019-04-05T16:30:33.849Z,16.57
2019-04-05T16:33:03.143Z,16.97
2019-04-05T16:35:32.713Z,17.03
2019-04-05T16:38:01.883Z,17.00
2019-04-05T16:40:31.523Z,18.73
2019-04-05T16:43:02.643Z,19.03
2019-04-05T16:45:32.723Z,20.37
2019-04-05T16:48:03.269Z,18.60
2019-04-05T16:50:32.605Z,19.10
2019-04-05T16:53:01.954Z,19.83
2019-04-05T16:55:31.209Z,19.60
2019-04-05T16:58:00.298Z,20.67
2019-04-05T17:00:29.483Z,19.23
2019-04-05T17:02:58.634Z,19.70
2019-04-05T17:05:27.755Z,18.77
2019-04-05T17:07:56.930Z,19.20
2019-04-05T17:10:26.193Z,18.67
2019-04-05T17:12:55.333Z,18.37
2019-04-05T17:15:24.532Z,17.47
2019-04-05T17:17:53.660Z,20.27
2019-04-05T17:20:23.379Z,18.87
2019-04-05T17:22:58.344Z,18.00
2019-04-05T17:25:23.421Z,18.30
2019-04-05T17:27:52.623Z,19.50
2019-04-05T17:30:21.844Z,18.83
2019-04-05T17:32:51.014Z,20.17
2019-04-05T17:35:20.816Z,18.57
2019-04-05T17:37:50.205Z,17.47
2019-04-05T17:40:19.552Z,17.80
2019-04-05T17:42:48.767Z,18.40
2019-04-05T17:45:18.820Z,20.03
2019-04-05T17:47:47.975Z,16.60
2019-04-05T17:53:12.079Z,17.83
2019-04-05T17:55:33.602Z,18.40
2019-04-05T17:58:03.956Z,18.53
2019-04-05T18:00:33.274Z,19.93
2019-04-05T18:03:02.441Z,17.53
2019-04-05T18:05:31.624Z,17.90
2019-04-05T18:08:00.886Z,19.07
2019-04-05T18:10:30.097Z,16.50
2019-04-05T18:12:59.340Z,16.70
2019-04-05T18:15:28.535Z,15.70
2019-04-05T18:17:57.785Z,17.10
2019-04-05T18:20:26.993Z,16.33
2019-04-05T18:22:56.218Z,19.47
2019-04-05T18:25:25.380Z,17.57
2019-04-05T18:27:54.562Z,17.50
2019-04-05T18:30:23.772Z,17.90
2019-04-05T18:32:53.087Z,18.67
2019-04-05T18:35:22.332Z,18.17
2019-04-05T18:37:51.696Z,18.00
2019-04-05T18:40:21.213Z,18.60
2019-04-05T18:42:50.555Z,17.53
2019-04-05T18:45:20.388Z,17.80
2019-04-05T18:47:49.750Z,19.27
2019-04-05T18:50:19.114Z,21.47
2019-04-05T18:52:48.564Z,19.03
2019-04-05T18:55:18.046Z,17.17
2019-04-05T18:57:47.651Z,18.70
2019-04-05T19:00:16.889Z,18.77
2019-04-05T19:02:46.665Z,18.20
2019-04-05T19:05:16.285Z,17.20
2019-04-05T19:07:45.962Z,18.83
2019-04-05T19:10:15.391Z,19.97
2019-04-05T19:12:46.661Z,18.77
2019-04-05T19:15:16.309Z,19.50
2019-04-05T19:17:45.742Z,18.13
2019-04-05T19:20:15.354Z,18.03
2019-04-05T19:22:44.783Z,17.47
2019-04-05T19:25:14.176Z,18.37
2019-04-05T19:27:43.662Z,17.60
2019-04-05T19:50:28.282Z,19.47
2019-04-05T19:52:57.856Z,19.07
2019-04-05T19:55:27.389Z,19.63
2019-04-05T19:57:56.867Z,18.00
2019-04-05T20:00:26.342Z,19.93
2019-04-05T20:02:55.748Z,19.10
2019-04-05T20:05:27.628Z,19.37
2019-04-05T20:08:02.193Z,19.40
2019-04-05T20:10:38.166Z,17.87
2019-04-05T20:13:07.777Z,19.50
2019-04-05T20:15:37.347Z,19.93
2019-04-05T20:18:06.972Z,19.73
2019-04-05T20:20:37.494Z,18.87
2019-04-05T20:23:07.040Z,18.80
2019-04-05T20:25:37.450Z,18.83
2019-04-05T20:28:07.387Z,19.10
2019-04-05T20:30:37.048Z,19.80
2019-04-05T20:33:06.828Z,18.63
2019-04-05T20:35:36.554Z,18.70
2019-04-05T20:38:06.230Z,20.67
2019-04-05T20:40:36.568Z,21.83
2019-04-05T20:43:06.074Z,22.00
2019-04-05T20:45:35.643Z,20.90
2019-04-05T20:48:05.151Z,21.80
2019-04-05T20:50:34.694Z,20.17
2019-04-05T20:53:04.231Z,20.10
2019-04-05T20:55:33.943Z,22.10
2019-04-05T20:58:03.579Z,20.43
2019-04-05T21:00:35.007Z,20.47
2019-04-05T21:03:04.538Z,18.97
2019-04-05T21:05:34.118Z,20.53
2019-04-05T21:08:04.343Z,21.70
2019-04-05T21:10:33.981Z,20.63
2019-04-05T21:13:03.653Z,20.07
2019-04-05T21:15:33.434Z,19.37
2019-04-05T21:18:06.905Z,20.43
2019-04-05T21:20:36.445Z,19.73
2019-04-05T21:23:06.147Z,21.13
2019-04-05T21:25:35.963Z,21.63
2019-04-05T21:28:05.527Z,20.00
2019-04-05T21:30:35.474Z,19.83
2019-04-05T21:33:05.189Z,19.97
2019-04-05T21:35:34.965Z,20.53
2019-04-05T21:38:05.618Z,19.77
2019-04-05T21:40:35.249Z,20.40
2019-04-05T21:43:05.798Z,20.67
2019-04-05T21:46:00.824Z,21.30
2019-04-05T21:48:30.682Z,22.93
2019-04-05T21:51:00.130Z,21.43
2019-04-05T21:53:29.356Z,23.53
2019-04-05T21:55:58.626Z,21.87
2019-04-05T21:58:27.862Z,22.83
2019-04-05T22:01:01.630Z,23.43
2019-04-05T22:03:31.180Z,22.63
2019-04-05T22:06:00.416Z,21.80
2019-04-05T22:08:29.618Z,22.97
2019-04-05T22:10:58.870Z,23.27
2019-04-05T22:13:28.032Z,23.03
2019-04-05T22:15:57.258Z,23.47
2019-04-05T22:18:26.479Z,21.47
2019-04-05T22:20:55.812Z,21.77
2019-04-05T22:23:25.043Z,22.37
2019-04-05T22:25:54.177Z,23.63
2019-04-05T22:28:23.362Z,23.57
2019-04-05T22:30:52.555Z,23.33
2019-04-05T22:33:21.849Z,22.67
2019-04-05T22:35:51.120Z,23.23
2019-04-05T22:38:20.299Z,23.90
2019-04-05T22:40:49.457Z,24.13
2019-04-05T22:43:18.661Z,23.97
2019-04-05T22:45:47.818Z,22.77
2019-04-05T22:48:16.989Z,24.23
2019-04-05T22:50:46.181Z,23.37
2019-04-05T22:53:15.414Z,23.40
2019-04-05T22:55:44.571Z,23.93
2019-04-05T22:58:13.890Z,24.47
2019-04-05T23:00:43.097Z,23.57
2019-04-05T23:03:12.372Z,25.37
2019-04-05T23:05:41.638Z,24.23
2019-04-05T23:08:10.892Z,24.20
2019-04-05T23:10:40.094Z,25.97
2019-04-05T23:13:10.182Z,24.30
2019-04-05T23:15:39.439Z,23.33
2019-04-05T23:18:08.647Z,24.57
2019-04-05T23:20:37.879Z,23.43
2019-04-05T23:23:07.079Z,22.57
2019-04-05T23:25:36.365Z,23.70
2019-04-05T23:28:05.624Z,22.40
2019-04-05T23:30:34.861Z,22.07
2019-04-05T23:33:04.077Z,23.47
2019-04-05T23:35:33.424Z,21.23
2019-04-05T23:38:02.850Z,22.33
2019-04-05T23:40:33.660Z,22.47
2019-04-05T23:43:03.519Z,22.40
2019-04-05T23:45:33.320Z,22.83
2019-04-05T23:48:03.048Z,24.43
2019-04-05T23:50:51.528Z,22.43
2019-04-05T23:53:23.784Z,21.63
2019-04-05T23:55:52.943Z,22.77
2019-04-05T23:58:22.111Z,22.03
